Time;durP1;ratioP1;P1;durP2;ratioP2;P2;SDS_P1;SDS_P2;PMS_P1;PMS_P2;Temp;Humidity;BMP_temperature;BMP_pressure;BME280_temperature;BME280_humidity;BME280_pressure;Samples;Min_cycle;Max_cycle;Signal;HPM_P1;HPM_P2
2023/06/26 00:01:49;;;;;;;12.90;6.90;;;;;;;18.09;100.00;100327.27;184584;1237;44986;-59
2023/06/26 00:05:51;;;;;;;9.90;7.00;;;;;;;18.05;100.00;100319.23;184798;1238;46666;-60
2023/06/26 00:09:53;;;;;;;12.00;5.90;;;;;;;18.01;100.00;100320.76;184615;1239;43744;-60
2023/06/26 00:13:55;;;;;;;9.10;6.60;;;;;;;17.98;100.00;100317.36;184635;1238;46011;-60
2023/06/26 00:17:58;;;;;;;9.10;7.10;;;;;;;17.95;100.00;100315.00;184582;1237;59086;-60
2023/06/26 00:22:00;;;;;;;7.90;5.70;;;;;;;17.91;100.00;100312.20;184626;1238;46102;-60
2023/06/26 00:26:04;;;;;;;9.50;6.90;;;;;;;17.84;100.00;100309.70;184798;1238;43771;-60
2023/06/26 00:30:08;;;;;;;12.20;7.10;;;;;;;17.81;100.00;100310.91;184682;1238;44637;-59
2023/06/26 00:34:10;;;;;;;15.20;8.50;;;;;;;17.79;100.00;100303.73;184762;1238;45945;-60
2023/06/26 00:38:11;;;;;;;10.10;6.00;;;;;;;17.73;100.00;100303.45;185008;1237;58227;-60
2023/06/26 00:42:18;;;;;;;10.30;7.10;;;;;;;17.69;100.00;100299.98;184825;1238;43513;-60
2023/06/26 00:46:19;;;;;;;8.60;7.60;;;;;;;17.67;100.00;100298.40;184598;1238;45974;-61
2023/06/26 00:50:21;;;;;;;10.70;6.90;;;;;;;17.62;100.00;100292.30;184619;1238;43746;-59
2023/06/26 00:54:24;;;;;;;10.90;7.20;;;;;;;17.58;100.00;100299.04;184630;1237;44700;-62
2023/06/26 00:58:26;;;;;;;15.60;7.20;;;;;;;17.53;100.00;100296.87;184647;1238;59966;-59
2023/06/26 01:02:33;;;;;;;15.70;6.40;;;;;;;17.48;100.00;100297.27;184639;1237;43481;-60
2023/06/26 01:06:36;;;;;;;14.20;6.40;;;;;;;17.44;100.00;100294.67;185072;1237;43451;-60
2023/06/26 01:10:39;;;;;;;16.80;6.80;;;;;;;17.41;100.00;100289.90;185113;1238;43544;-61
2023/06/26 01:14:44;;;;;;;13.50;5.70;;;;;;;17.41;100.00;100285.33;184980;1237;45899;-60
2023/06/26 01:18:50;;;;;;;10.00;7.40;;;;;;;17.35;100.00;100283.29;184738;1237;59832;-61
2023/06/26 01:23:26;;;;;;;11.10;6.70;;;;;;;17.31;100.00;100281.56;184725;1238;45356;-60
2023/06/26 01:27:42;;;;;;;35.20;6.50;;;;;;;17.24;100.00;100278.00;184457;1238;45910;-60
2023/06/26 01:31:48;;;;;;;14.70;6.80;;;;;;;17.20;100.00;100274.17;184473;1240;45061;-61
2023/06/26 01:35:50;;;;;;;12.10;5.90;;;;;;;17.16;100.00;100270.65;184496;1240;43496;-60
2023/06/26 01:39:51;;;;;;;16.20;8.60;;;;;;;17.13;100.00;100270.99;184581;1238;58450;-60
2023/06/26 01:49:25;;;;;;;14.30;6.80;;;;;;;17.12;100.00;100263.40;184507;1236;44270;-59
2023/06/26 01:53:36;;;;;;;19.10;7.70;;;;;;;17.10;100.00;100264.34;184707;1237;43531;-59
2023/06/26 01:57:39;;;;;;;12.40;5.60;;;;;;;17.05;100.00;100260.58;184554;1237;44796;-60
2023/06/26 02:01:41;;;;;;;14.80;7.70;;;;;;;17.01;100.00;100254.55;184526;1238;163230;-60
2023/06/26 02:05:44;;;;;;;16.90;6.80;;;;;;;16.98;100.00;100256.06;184720;1237;43911;-60
2023/06/26 02:09:46;;;;;;;10.60;4.90;;;;;;;16.95;100.00;100252.05;184673;1237;44504;-60
2023/06/26 02:13:53;;;;;;;17.10;7.20;;;;;;;16.94;100.00;100251.12;184637;1237;45264;-62
2023/06/26 02:17:54;;;;;;;11.90;7.40;;;;;;;16.92;100.00;100250.62;184739;1238;45088;-60
2023/06/26 02:21:57;;;;;;;13.90;6.40;;;;;;;16.91;100.00;100251.26;184544;1237;59119;-60
2023/06/26 02:26:00;;;;;;;10.90;5.50;;;;;;;16.83;100.00;100250.58;184752;1237;45942;-60
2023/06/26 02:30:02;;;;;;;25.30;8.40;;;;;;;16.74;100.00;100253.14;184854;1238;44501;-59
2023/06/26 02:34:05;;;;;;;14.90;6.60;;;;;;;16.68;100.00;100253.69;184821;1237;44815;-59
2023/06/26 02:38:09;;;;;;;13.60;6.30;;;;;;;16.67;100.00;100257.78;184803;1238;43494;-59
2023/06/26 02:42:20;;;;;;;13.10;7.50;;;;;;;16.68;100.00;100258.89;184673;1238;59458;-58
2023/06/26 02:46:33;;;;;;;12.30;5.60;;;;;;;16.69;100.00;100260.80;184806;1235;94343;-86
2023/06/26 02:50:54;;;;;;;37.80;7.60;;;;;;;16.74;100.00;100257.83;184603;1241;46156;-60
2023/06/26 02:54:55;;;;;;;24.80;7.70;;;;;;;16.77;100.00;100257.13;184511;1238;45951;-61
2023/06/26 02:58:57;;;;;;;14.60;6.00;;;;;;;16.78;100.00;100254.13;184283;1238;45061;-59
2023/06/26 03:02:59;;;;;;;15.80;6.30;;;;;;;16.73;100.00;100251.48;184635;1238;59005;-59
2023/06/26 03:07:04;;;;;;;13.80;5.90;;;;;;;16.75;100.00;100254.34;184935;1238;43805;-59
2023/06/26 03:11:10;;;;;;;16.90;6.10;;;;;;;16.82;100.00;100246.67;184724;1238;46068;-61
2023/06/26 03:15:11;;;;;;;29.70;7.90;;;;;;;16.93;100.00;100247.89;184283;1241;45896;-61
2023/06/26 03:19:13;;;;;;;24.30;8.60;;;;;;;16.95;100.00;100254.64;184646;1238;45970;-60
2023/06/26 03:23:15;;;;;;;10.60;7.90;;;;;;;16.94;100.00;100251.98;184503;1238;58701;-59
2023/06/26 03:27:17;;;;;;;9.10;5.90;;;;;;;16.91;100.00;100251.42;184704;1238;43476;-60
2023/06/26 03:31:20;;;;;;;18.00;9.10;;;;;;;17.00;100.00;100249.48;184653;1238;45938;-59
2023/06/26 03:35:23;;;;;;;18.30;7.50;;;;;;;17.20;100.00;100241.86;184532;1240;44150;-60
2023/06/26 03:39:27;;;;;;;13.30;8.00;;;;;;;17.35;100.00;100243.64;184672;1238;46074;-62
2023/06/26 03:43:29;;;;;;;16.70;8.70;;;;;;;17.56;100.00;100245.59;184564;1238;57929;-59
2023/06/26 03:47:31;;;;;;;11.40;6.60;;;;;;;17.78;100.00;100241.05;184628;1238;45912;-59
2023/06/26 03:51:32;;;;;;;19.70;8.40;;;;;;;18.00;100.00;100241.77;184660;1238;43840;-59
2023/06/26 03:55:34;;;;;;;19.20;9.30;;;;;;;18.22;100.00;100234.81;184658;1238;46115;-60
2023/06/26 03:59:36;;;;;;;12.40;6.50;;;;;;;18.35;100.00;100230.45;184676;1238;45890;-59
2023/06/26 04:03:38;;;;;;;11.10;7.50;;;;;;;18.56;100.00;100233.31;184525;1238;57261;-60
2023/06/26 04:07:42;;;;;;;20.10;8.20;;;;;;;18.78;100.00;100232.50;184748;1238;43681;-61
2023/06/26 04:11:44;;;;;;;15.10;6.00;;;;;;;18.94;100.00;100235.23;184623;1241;46058;-60
2023/06/26 04:15:45;;;;;;;10.20;5.50;;;;;;;19.04;100.00;100236.42;184510;1238;45890;-60
2023/06/26 04:19:47;;;;;;;14.80;7.90;;;;;;;19.19;100.00;100235.38;184596;1238;43741;-59
2023/06/26 04:23:49;;;;;;;14.50;7.20;;;;;;;19.48;100.00;100234.81;184271;1238;57257;-61
2023/06/26 04:27:51;;;;;;;15.40;6.10;;;;;;;19.88;100.00;100232.77;184283;1238;45955;-60
2023/06/26 04:31:57;;;;;;;24.60;7.50;;;;;;;20.46;100.00;100233.96;184482;1238;44865;-60
2023/06/26 04:36:03;;;;;;;17.60;7.90;;;;;;;21.48;100.00;100232.11;184461;1238;45001;-60
2023/06/26 04:40:09;;;;;;;14.70;7.20;;;;;;;22.34;99.71;100227.64;184457;1238;43809;-60
2023/06/26 04:44:15;;;;;;;7.80;5.20;;;;;;;23.08;92.08;100225.63;184535;1238;59086;-60
2023/06/26 04:48:17;;;;;;;13.40;5.40;;;;;;;23.31;89.18;100225.70;184506;1238;46140;-60
2023/06/26 04:52:19;;;;;;;15.10;6.50;;;;;;;23.68;88.13;100219.80;184608;1238;44813;-60
2023/06/26 04:56:22;;;;;;;14.00;4.60;;;;;;;24.44;86.23;100218.94;184807;1238;43471;-61
2023/06/26 05:00:24;;;;;;;9.60;6.20;;;;;;;25.21;82.14;100217.19;185006;1238;44609;-63
2023/06/26 05:04:47;;;;;;;12.80;5.20;;;;;;;25.64;79.79;100211.98;184897;1238;58882;-60
2023/06/26 05:08:49;;;;;;;6.80;5.10;;;;;;;26.54;78.76;100204.83;184684;1238;43753;-61
2023/06/26 05:12:51;;;;;;;13.10;4.50;;;;;;;27.50;74.53;100204.17;184699;1238;43503;-61
2023/06/26 05:16:53;;;;;;;7.80;4.20;;;;;;;28.02;71.05;100197.03;184701;1238;44488;-61
2023/06/26 05:20:56;;;;;;;15.70;4.60;;;;;;;27.73;70.34;100197.30;184766;1238;43778;-61
2023/06/26 05:25:00;;;;;;;11.80;5.00;;;;;;;27.50;70.76;100197.75;184682;1238;58679;-61
2023/06/26 05:29:03;;;;;;;14.20;5.20;;;;;;;27.03;72.16;100199.22;184727;1241;43590;-63
2023/06/26 05:33:06;;;;;;;8.00;3.70;;;;;;;26.99;72.97;100198.14;184556;1238;43513;-61
2023/06/26 05:37:17;;;;;;;8.50;3.70;;;;;;;26.61;73.64;100192.30;184780;1238;44780;-62
2023/06/26 05:41:22;;;;;;;5.90;4.30;;;;;;;26.96;74.12;100189.63;184776;1237;45985;-61
2023/06/26 05:45:24;;;;;;;;;;;;;;;27.00;72.34;100192.00;184687;1238;60283;-62
2023/06/26 05:49:26;;;;;;;7.80;4.70;;;;;;;27.36;73.93;100196.59;184697;1238;43616;-61
2023/06/26 05:53:30;;;;;;;7.80;4.40;;;;;;;27.57;72.39;100193.27;184739;1238;43812;-61
2023/06/26 05:57:35;;;;;;;7.20;4.20;;;;;;;27.86;73.02;100193.83;184641;1238;44976;-61
2023/06/26 06:01:37;;;;;;;12.20;4.30;;;;;;;28.70;72.31;100190.63;184629;1238;44063;-62
2023/06/26 06:05:39;;;;;;;6.20;4.40;;;;;;;29.24;70.66;100180.81;184559;1241;58791;-61
2023/06/26 06:09:48;;;;;;;6.50;4.10;;;;;;;29.29;71.21;100182.91;184660;1238;43567;-61
2023/06/26 06:13:50;;;;;;;12.20;5.50;;;;;;;29.25;70.03;100184.11;184814;1238;44790;-61
2023/06/26 06:17:53;;;;;;;5.60;3.70;;;;;;;28.80;71.78;100182.85;184654;1237;43641;-61
2023/06/26 06:21:56;;;;;;;5.50;3.90;;;;;;;28.26;73.48;100187.08;184729;1238;44860;-62
2023/06/26 06:25:58;;;;;;;6.10;4.90;;;;;;;27.90;76.54;100186.90;184662;1238;59912;-61
2023/06/26 06:30:01;;;;;;;3.60;3.20;;;;;;;27.64;78.08;100186.78;184688;1238;44299;-61
2023/06/26 06:34:25;;;;;;;6.10;4.20;;;;;;;27.52;79.69;100181.34;184775;1238;45017;-63
2023/06/26 06:38:27;;;;;;;10.60;4.00;;;;;;;27.63;79.41;100176.31;184644;1238;43630;-61
2023/06/26 06:42:29;;;;;;;5.10;4.00;;;;;;;27.59;76.46;100173.29;184631;1238;46022;-61
2023/06/26 06:47:00;;;;;;;5.60;3.50;;;;;;;27.71;76.26;100171.58;184755;1237;58699;-62
2023/06/26 06:51:03;;;;;;;7.40;4.50;;;;;;;27.97;74.95;100170.60;184676;1238;43576;-61
2023/06/26 06:55:11;;;;;;;4.30;3.50;;;;;;;28.30;73.08;100169.23;184470;1238;44583;-63
2023/06/26 06:59:14;;;;;;;7.40;3.40;;;;;;;28.72;71.76;100168.67;184687;1239;43527;-60
2023/06/26 07:03:43;;;;;;;5.00;4.00;;;;;;;29.14;70.21;100167.37;185020;1238;43503;-60
2023/06/26 07:07:47;;;;;;;6.60;3.60;;;;;;;29.53;69.11;100158.64;184968;1238;58715;-61
2023/06/26 07:11:49;;;;;;;4.40;2.90;;;;;;;29.88;65.27;100162.35;184911;1238;45067;-61
2023/06/26 07:15:51;;;;;;;5.60;3.50;;;;;;;29.91;62.64;100161.45;184859;1238;44837;-62
2023/06/26 07:19:53;;;;;;;4.00;3.00;;;;;;;30.11;62.45;100156.80;184808;1237;44884;-62
2023/06/26 07:23:55;;;;;;;4.80;3.60;;;;;;;30.22;59.72;100151.27;184912;1238;43534;-63
2023/06/26 07:27:59;;;;;;;3.40;3.10;;;;;;;30.28;62.08;100152.02;184978;1237;57316;-62
2023/06/26 07:32:01;;;;;;;9.10;3.60;;;;;;;30.41;59.88;100150.59;184985;1238;44135;-62
2023/06/26 07:36:33;;;;;;;3.40;2.60;;;;;;;30.46;60.45;100149.53;184813;1238;44826;-63
2023/06/26 07:40:43;;;;;;;3.90;2.70;;;;;;;30.55;61.72;100143.68;184535;1238;44663;-62
2023/06/26 07:44:46;;;;;;;3.30;3.00;;;;;;;30.62;58.31;100146.10;184786;1238;43500;-62
2023/06/26 07:48:48;;;;;;;3.40;3.10;;;;;;;30.74;58.54;100136.03;184544;1238;58257;-61
2023/06/26 07:52:53;;;;;;;6.00;4.20;;;;;;;30.92;57.08;100135.38;184636;1238;44815;-62
2023/06/26 07:57:00;;;;;;;7.60;4.50;;;;;;;31.02;56.12;100134.06;184725;1238;44555;-61
2023/06/26 08:01:02;;;;;;;5.90;3.00;;;;;;;31.05;54.53;100132.70;184734;1238;43798;-63
2023/06/26 08:05:05;;;;;;;4.90;3.20;;;;;;;31.23;56.61;100132.04;184690;1238;45922;-61
2023/06/26 08:09:07;;;;;;;3.40;2.90;;;;;;;31.41;55.87;100126.50;184688;1237;58873;-61
2023/06/26 08:13:11;;;;;;;2.60;2.30;;;;;;;31.58;57.29;100130.30;184725;1238;43476;-61
2023/06/26 08:17:13;;;;;;;3.10;2.90;;;;;;;31.70;55.04;100129.55;184719;1238;43643;-62
2023/06/26 08:21:15;;;;;;;4.60;3.40;;;;;;;31.70;54.78;100128.30;185021;1238;43733;-60
2023/06/26 08:25:17;;;;;;;4.30;3.70;;;;;;;31.80;53.57;100124.91;185038;1238;45861;-61
2023/06/26 08:29:19;;;;;;;2.70;2.40;;;;;;;32.16;54.56;100121.89;184639;1238;57184;-61
2023/06/26 08:33:22;;;;;;;2.60;2.40;;;;;;;32.28;53.60;100124.25;184546;1237;43988;-61
2023/06/26 08:37:26;;;;;;;3.50;3.10;;;;;;;32.20;53.54;100122.01;184649;1238;44010;-62
2023/06/26 08:41:35;;;;;;;2.80;2.60;;;;;;;32.20;53.70;100118.92;184734;1238;43533;-62
2023/06/26 08:45:51;;;;;;;3.60;2.70;;;;;;;31.92;50.57;100119.55;184730;1238;46026;-62
2023/06/26 08:50:05;;;;;;;4.90;2.00;;;;;;;31.50;51.94;100116.86;184524;1241;57562;-61
2023/06/26 08:58:40;;;;;;;3.80;3.00;;;;;;;30.68;53.05;100110.69;184666;1238;44723;-61
2023/06/26 09:02:59;;;;;;;4.30;2.80;;;;;;;30.95;54.84;100114.64;184850;1238;46092;-63
2023/06/26 09:07:01;;;;;;;2.80;2.30;;;;;;;31.18;58.43;100107.72;184645;1238;43849;-60
2023/06/26 09:11:04;;;;;;;4.10;2.70;;;;;;;31.16;52.52;100107.09;184515;1238;58377;-61
2023/06/26 09:15:07;;;;;;;3.30;2.70;;;;;;;31.11;52.96;100098.85;184725;1237;43720;-61
2023/06/26 09:19:13;;;;;;;5.30;3.40;;;;;;;30.97;56.03;100099.87;184607;1237;43769;-63
2023/06/26 09:23:16;;;;;;;8.30;3.20;;;;;;;30.83;56.06;100096.52;184676;1238;43782;-61
2023/06/26 09:27:18;;;;;;;3.40;2.60;;;;;;;30.91;58.23;100097.80;184747;1238;45882;-61
2023/06/26 09:31:21;;;;;;;3.90;3.30;;;;;;;30.81;57.95;100092.20;184572;1238;58190;-60
2023/06/26 09:35:46;;;;;;;3.50;3.00;;;;;;;30.92;54.02;100089.46;184671;1239;45898;-63
2023/06/26 09:40:07;;;;;;;3.00;2.70;;;;;;;30.92;54.00;100080.56;184624;1238;43816;-60
2023/06/26 09:44:14;;;;;;;3.70;2.90;;;;;;;30.72;56.95;100080.30;184853;1239;44475;-60
2023/06/26 09:48:17;;;;;;;3.00;2.70;;;;;;;30.69;55.52;100081.83;184932;1238;43474;-60
2023/06/26 09:52:20;;;;;;;3.00;2.70;;;;;;;30.77;56.09;100075.39;184927;1237;58127;-61
2023/06/26 09:56:33;;;;;;;2.10;1.90;;;;;;;30.83;54.76;100077.95;185630;1234;43497;-62
2023/06/26 10:00:50;;;;;;;3.50;3.20;;;;;;;30.82;54.76;100078.66;184810;1235;44094;-90
2023/06/26 10:05:21;;;;;;;3.50;2.20;;;;;;;30.91;54.75;100074.36;184663;1240;44105;-91
2023/06/26 10:14:21;;;;;;;2.40;2.20;;;;;;;30.82;51.75;100069.98;184765;1238;59204;-90
2023/06/26 10:18:47;;;;;;;2.90;2.50;;;;;;;30.78;53.97;100064.26;184547;1238;44576;-91
2023/06/26 10:28:01;;;;;;;3.40;2.60;;;;;;;30.77;55.27;100060.02;184751;1238;46001;-91
2023/06/26 10:32:42;;;;;;;3.30;2.60;;;;;;;30.67;57.01;100053.23;184860;1238;46052;-90
2023/06/26 10:41:56;;;;;;;4.20;2.90;;;;;;;30.62;55.94;100047.58;185087;1240;45971;-90
2023/06/26 11:28:52;;;;;;;4.40;3.20;;;;;;;30.60;58.11;99995.69;184835;1239;58319;-62
2023/06/26 11:33:13;;;;;;;5.00;4.40;;;;;;;30.60;59.04;99996.08;184672;1239;43571;-61
2023/06/26 11:37:25;;;;;;;3.80;3.40;;;;;;;30.71;58.81;99993.07;184857;1243;43479;-62
2023/06/26 11:41:29;;;;;;;4.40;3.30;;;;;;;30.61;54.76;99982.15;185135;1239;44301;-61
2023/06/26 11:45:32;;;;;;;4.90;3.30;;;;;;;30.49;55.76;99980.98;184941;1239;45303;-60
2023/06/26 11:49:37;;;;;;;4.00;3.10;;;;;;;30.63;58.00;99975.63;184817;1239;58385;-60
2023/06/26 11:53:41;;;;;;;17.50;6.40;;;;;;;30.73;60.37;99977.88;184784;1239;45891;-59
2023/06/26 11:57:50;;;;;;;4.80;3.50;;;;;;;30.80;60.41;99974.10;184805;1239;43408;-60
2023/06/26 12:01:52;;;;;;;4.70;3.40;;;;;;;30.81;56.42;99969.77;184840;1239;46123;-60
2023/06/26 12:05:56;;;;;;;3.50;2.90;;;;;;;30.90;57.40;99968.21;184876;1239;43706;-60
2023/06/26 12:09:58;;;;;;;4.40;3.10;;;;;;;30.99;57.52;99965.27;184711;1239;58642;-59
2023/06/26 12:19:57;;;;;;;5.70;3.70;;;;;;;31.05;58.50;99959.47;184905;1239;43921;-60
2023/06/26 12:24:02;;;;;;;4.60;4.20;;;;;;;31.06;56.30;99953.81;184942;1238;43962;-59
2023/06/26 12:32:37;;;;;;;3.50;2.90;;;;;;;31.19;57.37;99951.98;185368;1237;108713;-61
2023/06/26 12:36:45;;;;;;;7.60;3.70;;;;;;;31.23;54.26;99944.42;185183;1236;43569;-60
2023/06/26 12:40:47;;;;;;;6.90;4.30;;;;;;;31.21;52.53;99940.78;185317;1237;44551;-61
2023/06/26 12:44:51;;;;;;;4.30;3.00;;;;;;;31.30;58.65;99944.59;185257;1237;43583;-60
2023/06/26 12:49:00;;;;;;;3.70;2.50;;;;;;;31.43;56.29;99940.05;185411;1236;43868;-61
2023/06/26 12:53:20;;;;;;;3.90;2.80;;;;;;;31.51;55.40;99930.98;185419;1236;59237;-60
2023/06/26 12:57:22;;;;;;;3.70;3.10;;;;;;;31.56;58.05;99925.75;185468;1236;43516;-60
2023/06/26 13:02:00;;;;;;;3.50;3.00;;;;;;;31.66;57.41;99915.36;185359;1237;43483;-60
2023/06/26 13:06:02;;;;;;;6.00;3.10;;;;;;;31.82;60.73;99915.64;185472;1236;45967;-60
2023/06/26 13:15:04;;;;;;;4.30;3.20;;;;;;;32.00;55.77;99904.73;185787;1235;85604;-61
2023/06/26 13:32:46;;;;;;;2.70;2.50;;;;;;;31.89;55.34;99868.13;186390;1237;43669;-88
2023/06/26 14:26:46;;;;;;;4.00;2.20;;;;;;;32.64;54.76;99796.10;186461;1237;57941;-68
2023/06/26 14:30:48;;;;;;;3.60;2.70;;;;;;;32.45;53.14;99782.67;186433;1237;43670;-67
2023/06/26 14:34:50;;;;;;;10.60;4.20;;;;;;;32.31;54.47;99776.47;186390;1236;43877;-67
2023/06/26 14:38:51;;;;;;;3.60;3.10;;;;;;;32.24;56.14;99777.38;186473;1236;43052;-67
2023/06/26 14:42:53;;;;;;;5.00;3.30;;;;;;;32.20;55.69;99768.36;186374;1240;42957;-68
2023/06/26 14:46:55;;;;;;;2.30;2.10;;;;;;;32.19;57.39;99767.00;186459;1237;58539;-67
2023/06/26 14:51:00;;;;;;;7.40;2.70;;;;;;;32.21;57.05;99765.17;186447;1240;43027;-67
2023/06/26 14:55:01;;;;;;;6.20;3.70;;;;;;;32.18;55.96;99764.31;186430;1236;42994;-67
2023/06/26 14:59:07;;;;;;;;;;;;;;;32.13;53.71;99754.16;186427;1238;42947;-67
2023/06/26 15:03:08;;;;;;;4.50;2.90;;;;;;;31.97;53.89;99746.27;186448;1237;43394;-67
2023/06/26 15:07:11;;;;;;;4.90;3.50;;;;;;;31.97;55.20;99738.13;186496;1238;58118;-67
2023/06/26 15:11:13;;;;;;;4.80;3.20;;;;;;;32.02;53.66;99732.16;186515;1237;42995;-67
2023/06/26 15:15:15;;;;;;;5.40;3.90;;;;;;;32.01;55.67;99723.55;186508;1237;43650;-67
2023/06/26 15:19:16;;;;;;;4.40;4.00;;;;;;;31.94;56.52;99717.02;186431;1240;43655;-68
2023/06/26 15:23:18;;;;;;;14.50;3.70;;;;;;;31.96;55.55;99714.22;186447;1236;43323;-67
2023/06/26 15:27:20;;;;;;;5.10;3.00;;;;;;;31.95;55.91;99709.98;186512;1237;58211;-67
2023/06/26 15:31:23;;;;;;;3.40;2.70;;;;;;;31.89;57.44;99711.13;186508;1237;42942;-67
2023/06/26 15:35:26;;;;;;;3.20;2.60;;;;;;;31.79;56.98;99704.39;186445;1237;43616;-67
2023/06/26 15:39:28;;;;;;;3.70;3.20;;;;;;;31.68;55.51;99702.21;186519;1237;43038;-67
2023/06/26 15:43:31;;;;;;;3.40;2.30;;;;;;;31.61;56.65;99703.17;186478;1236;43839;-67
2023/06/26 15:47:34;;;;;;;3.00;2.70;;;;;;;31.59;56.68;99701.10;186426;1238;57988;-67
2023/06/26 15:51:37;;;;;;;3.40;3.10;;;;;;;31.55;58.28;99702.65;186449;1236;43033;-68
2023/06/26 15:55:39;;;;;;;3.90;3.50;;;;;;;31.67;59.06;99691.56;186435;1238;43733;-68
2023/06/26 15:59:44;;;;;;;3.10;2.70;;;;;;;31.68;59.12;99686.77;186452;1237;43084;-60
2023/06/26 16:03:46;;;;;;;3.90;2.70;;;;;;;31.67;58.15;99682.98;186493;1237;43784;-60
2023/06/26 16:07:53;;;;;;;3.80;3.40;;;;;;;31.77;54.78;99679.27;186472;1237;57821;-60
2023/06/26 16:11:59;;;;;;;2.60;2.40;;;;;;;31.88;56.65;99677.08;186319;1237;43696;-60
2023/06/26 16:16:01;;;;;;;3.30;3.00;;;;;;;31.85;57.02;99672.81;186451;1236;42914;-60
2023/06/26 16:20:03;;;;;;;3.80;2.80;;;;;;;31.79;57.78;99662.66;186485;1238;43725;-60
2023/06/26 16:24:05;;;;;;;5.20;3.80;;;;;;;31.82;56.42;99650.28;186425;1236;43635;-60
2023/06/26 16:28:19;;;;;;;7.30;3.80;;;;;;;31.85;56.75;99644.55;186457;1237;58336;-60
2023/06/26 16:32:21;;;;;;;3.60;3.20;;;;;;;31.74;57.28;99636.55;186485;1237;43439;-60
2023/06/26 16:36:23;;;;;;;3.40;2.70;;;;;;;31.63;59.15;99640.89;186497;1236;43698;-60
2023/06/26 16:40:25;;;;;;;7.20;3.30;;;;;;;31.47;61.33;99640.42;186497;1237;44066;-60
2023/06/26 16:44:27;;;;;;;8.70;4.40;;;;;;;31.23;59.29;99643.30;186470;1237;42986;-60
2023/06/26 16:48:28;;;;;;;3.40;2.50;;;;;;;31.01;59.66;99643.29;186414;1236;58515;-60
2023/06/26 16:52:30;;;;;;;4.40;4.00;;;;;;;30.78;60.39;99634.34;186465;1236;43642;-60
2023/06/26 17:01:36;;;;;;;4.30;3.90;;;;;;;30.41;61.19;99635.27;186475;1237;42999;-60
2023/06/26 17:05:40;;;;;;;5.90;3.90;;;;;;;30.18;64.07;99625.55;186516;1240;42950;-62
2023/06/26 17:09:43;;;;;;;8.50;4.90;;;;;;;29.90;67.28;99620.48;186502;1237;58201;-61
2023/06/26 17:13:45;;;;;;;24.80;9.80;;;;;;;29.63;71.16;99615.87;186478;1236;42990;-62
2023/06/26 17:18:38;;;;;;;12.80;8.30;;;;;;;29.48;70.06;99618.67;186519;1236;42959;-61
2023/06/26 17:22:43;;;;;;;9.20;7.20;;;;;;;29.35;70.47;99611.91;186473;1236;42998;-61
2023/06/26 17:27:27;;;;;;;7.10;5.20;;;;;;;29.15;74.08;99612.48;186563;1236;42953;-61
2023/06/26 17:31:31;;;;;;;8.40;5.40;;;;;;;28.98;73.69;99605.33;186490;1236;57745;-61
2023/06/26 17:35:37;;;;;;;6.80;5.10;;;;;;;28.81;74.49;99602.80;186483;1237;42966;-61
2023/06/26 17:39:39;;;;;;;21.60;6.50;;;;;;;28.68;74.56;99600.52;186537;1236;42973;-60
2023/06/26 17:43:54;;;;;;;7.20;3.80;;;;;;;28.55;74.94;99600.60;186519;1236;43622;-61
2023/06/26 17:47:56;;;;;;;5.40;3.90;;;;;;;28.39;77.68;99594.46;186534;1236;43403;-61
2023/06/26 17:52:01;;;;;;;7.40;4.70;;;;;;;28.17;80.06;99589.85;186468;1237;59337;-60
2023/06/26 17:56:03;;;;;;;;;;;;;;;27.95;81.80;99584.80;186501;1236;43361;-60
2023/06/26 18:00:08;;;;;;;7.50;5.50;;;;;;;27.73;82.25;99584.98;186518;1236;43433;-61
2023/06/26 18:04:10;;;;;;;6.80;4.70;;;;;;;27.55;82.70;99585.64;186417;1236;43046;-61
2023/06/26 18:08:12;;;;;;;7.50;4.50;;;;;;;27.38;82.93;99580.75;186506;1236;43567;-61
2023/06/26 18:12:14;;;;;;;7.70;6.00;;;;;;;27.26;81.53;99575.85;186479;1236;59373;-61
2023/06/26 18:16:15;;;;;;;7.70;5.00;;;;;;;27.20;81.72;99571.09;186507;1236;43007;-61
2023/06/26 18:20:29;;;;;;;7.90;4.60;;;;;;;27.10;81.64;99562.08;186555;1236;43350;-61
2023/06/26 18:24:31;;;;;;;19.70;8.50;;;;;;;27.03;82.08;99545.70;186485;1238;43791;-62
2023/06/26 18:28:42;;;;;;;11.30;6.40;;;;;;;26.88;83.72;99531.98;186504;1236;43723;-61
2023/06/26 18:32:46;;;;;;;21.20;11.90;;;;;;;26.74;83.98;99530.69;186532;1236;59302;-61
2023/06/26 18:36:53;;;;;;;16.30;8.70;;;;;;;26.66;84.08;99519.87;186514;1236;43082;-60
2023/06/26 18:40:56;;;;;;;12.70;7.10;;;;;;;26.59;84.08;99530.27;186557;1236;42983;-61
2023/06/26 18:44:59;;;;;;;6.90;6.00;;;;;;;26.52;83.81;99530.54;186477;1236;43677;-60
2023/06/26 18:49:04;;;;;;;5.30;4.70;;;;;;;26.44;83.43;99540.98;186522;1236;42928;-61
2023/06/26 18:53:06;;;;;;;;;;;;;;;26.39;83.46;99543.92;186492;1236;59130;-61
2023/06/26 18:57:07;;;;;;;24.40;15.00;;;;;;;26.30;83.55;99542.19;186442;1236;43052;-61
2023/06/26 19:01:09;;;;;;;20.30;10.90;;;;;;;26.14;83.81;99546.88;186494;1236;43377;-61
2023/06/26 19:05:11;;;;;;;14.50;4.50;;;;;;;25.57;86.57;99614.30;186513;1236;43665;-60
2023/06/26 19:09:13;;;;;;;8.20;4.60;;;;;;;24.97;85.99;99628.23;186480;1236;43312;-59
2023/06/26 19:13:17;;;;;;;20.30;4.90;;;;;;;24.53;88.19;99627.02;186475;1238;58201;-59
2023/06/26 19:17:20;;;;;;;8.30;4.70;;;;;;;24.11;89.97;99643.11;186500;1236;43798;-60
2023/06/26 19:21:21;;;;;;;14.30;6.10;;;;;;;23.77;94.36;99718.60;186485;1237;42972;-60
2023/06/26 19:25:23;;;;;;;9.20;5.60;;;;;;;22.87;100.00;99757.27;186542;1236;43818;-60
2023/06/26 19:29:47;;;;;;;16.10;6.20;;;;;;;21.44;100.00;99742.23;186522;1236;42987;-59
2023/06/26 19:33:49;;;;;;;10.70;5.00;;;;;;;20.74;100.00;99806.45;186485;1236;59930;-59
2023/06/26 19:37:50;;;;;;;6.30;4.70;;;;;;;20.52;100.00;99820.35;186536;1240;43023;-59
2023/06/26 19:42:06;;;;;;;6.60;5.00;;;;;;;20.50;100.00;99797.07;186503;1236;43615;-59
2023/06/26 19:46:08;;;;;;;11.60;5.80;;;;;;;20.48;100.00;99788.46;186503;1236;43048;-60
2023/06/26 19:50:10;;;;;;;7.00;4.80;;;;;;;20.50;100.00;99779.65;186514;1236;43652;-60
2023/06/26 19:54:11;;;;;;;9.30;5.30;;;;;;;20.55;100.00;99800.54;186345;1236;57947;-61
2023/06/26 19:58:13;;;;;;;17.00;5.50;;;;;;;20.52;100.00;99797.91;186484;1240;42994;-60
2023/06/26 20:02:16;;;;;;;7.90;5.20;;;;;;;20.57;100.00;99826.18;186465;1236;43350;-60
2023/06/26 20:06:17;;;;;;;8.30;4.70;;;;;;;20.65;100.00;99852.86;186411;1236;43035;-59
2023/06/26 20:10:19;;;;;;;8.80;6.40;;;;;;;20.65;100.00;99865.59;186472;1236;43002;-59
2023/06/26 20:14:21;;;;;;;8.20;5.70;;;;;;;20.58;100.00;99869.71;186458;1236;58305;-58
2023/06/26 20:18:24;;;;;;;8.90;6.30;;;;;;;20.55;100.00;99880.46;186380;1236;43044;-59
2023/06/26 20:22:26;;;;;;;8.20;5.80;;;;;;;20.55;100.00;99884.99;186524;1236;43423;-59
2023/06/26 20:26:28;;;;;;;10.40;6.80;;;;;;;20.62;100.00;99888.50;186448;1236;43626;-59
2023/06/26 20:30:29;;;;;;;7.20;5.90;;;;;;;20.65;100.00;99885.85;186490;1236;43689;-60
2023/06/26 20:34:31;;;;;;;12.10;8.40;;;;;;;20.77;100.00;99900.38;186477;1236;57406;-60
2023/06/26 20:38:33;;;;;;;8.30;7.00;;;;;;;20.86;100.00;99922.86;186491;1236;43628;-59
2023/06/26 20:42:36;;;;;;;13.20;8.50;;;;;;;20.89;100.00;99935.41;186446;1236;43371;-59
2023/06/26 20:46:38;;;;;;;10.40;7.50;;;;;;;20.79;100.00;99930.95;186581;1235;43140;-57
2023/06/26 20:50:59;;;;;;;14.00;7.90;;;;;;;20.71;100.00;99934.69;187029;1235;42932;-57
2023/06/26 20:55:02;;;;;;;10.70;8.30;;;;;;;20.66;100.00;99935.95;187013;1235;58458;-57
2023/06/26 20:59:55;;;;;;;8.00;7.20;;;;;;;20.64;100.00;99938.23;186740;1235;43075;-57
2023/06/26 21:03:57;;;;;;;10.30;6.90;;;;;;;20.63;100.00;99935.36;187037;1235;42896;-58
2023/06/26 21:07:59;;;;;;;13.10;8.40;;;;;;;20.63;100.00;99928.09;186695;1235;43031;-59
2023/06/26 21:12:28;;;;;;;8.20;6.50;;;;;;;20.62;100.00;99935.77;187049;1238;43052;-59
2023/06/26 21:16:30;;;;;;;10.20;6.70;;;;;;;20.52;100.00;99936.19;187028;1235;58447;-59
2023/06/26 21:20:57;;;;;;;7.40;6.70;;;;;;;20.45;100.00;99928.50;187025;1235;43182;-59